ポルトープランス の空港の天気 - METARとTAF

ポルトープランス国際空港 ( MTPP / PAP ) - ハイチ ポルトープランス
飛行場実況気象(Metar)
観測時間11/30 13:51 EST (11/30 18:51 UTC)
風向・風速西北西 4m/s
視程10km以上
天気現象
少しの雲 雲底高度 820m
気温30℃
湿度59%
気圧1012hPa
METARMTPP 301851Z 29007KT 250V340 9999 FEW027 30/21 Q1012 A2988 NOSIG
過去の天気等 Google飛行場航空写真 Wunderground天気予報

過去48時間のMETAR

飛行場予報(TAF)
データがありません